Kaiwo Maru — JMMU — position and weather

sailwx.info

Track history (hours):
 
Tides and Currents Weather Stations Pressure Air Temp Water Temp Dewpoint Dewpoint Depression Visibility Wind Speed Wind Dir Waves Ship Positions

Kaiwo Maru (Japan)

Built in 1989. Trains merchant marine cadets for Japan's National Institute for Sea Training.

Ship's website: http://www.kohkun.go.jp/en/ships/kaiwomaru.html

Last reported at 2017-May-09 12:20 UTC. Time now 2017-May-23 04:56 UTC.
Position N 48°18' W 125°20'.
Warning: this ship's position is 13 days out of date.

Length 110.1 m; beam 13.8 m; draft 6 m.

Type: Sailing vessel. MMSI: 431006000.

Date/timePositionNaut miles runAvg speedWind from/ knotsBaromVisibWave heightAir tempDewpointWater temp
2017-May-09 12:20N 48°18' W 125°20'4 9.4
2017-May-09 11:52N 48°21' W 125°15'4 9.5
2017-May-09 11:28N 48°23' W 125°10'5 9.9
2017-May-09 11:00N 48°27' W 125°06'5 9.8
2017-May-09 10:29N 48°31' W 125°01'5 9.4
2017-May-09 10:00N 48°31' W 124°54'5 9.6
2017-May-09 09:30N 48°30' W 124°47'5 9.5
2017-May-09 09:00N 48°29' W 124°40'5 9.4
2017-May-09 08:31N 48°28' W 124°33'5 9.4
2017-May-09 08:00N 48°26' W 124°27'5 9.2
2017-May-09 07:30N 48°24' W 124°20'5 9.6
2017-May-09 07:00N 48°22' W 124°13'5 9.7
2017-May-09 06:30N 48°21' W 124°07'5 9.7
2017-May-09 06:00N 48°19' W 124°00'5 9.9
2017-May-09 05:30N 48°17' W 123°53'610.3
2017-May-09 04:58N 48°16' W 123°45'510.3
2017-May-09 04:30N 48°15' W 123°38'5 9.8
2017-May-09 03:59N 48°16' W 123°30'511.2
2017-May-09 03:31N 48°21' W 123°26'4 8.4
2017-May-09 03:01N 48°23' W 123°21'510.9
2017-May-09 02:30N 48°25' W 123°13'510.9
2017-May-09 02:00N 48°30' W 123°15'511.0
2017-May-09 01:30N 48°35' W 123°19'510.2
2017-May-09 01:00N 48°40' W 123°21'510.4
2017-May-09 00:30N 48°45' W 123°21'6 9.8
2017-May-08 23:53N 48°51' W 123°21'5 6.7
2017-May-08 23:04N 48°56' W 123°19'110.0
2017-May-08 22:56N 48°57' W 123°19'410.1
2017-May-08 22:30N 49°02' W 123°21'5 9.0
2017-May-08 22:00N 49°06' W 123°19'5 1.4
2017-May-08 18:31N 49°07' W 123°12'0 0.0
2017-May-08 16:43N 49°07' W 123°12'0 0.0
2017-May-08 16:25N 49°07' W 123°12'0 0.0
2017-May-07 16:07N 49°07' W 123°12'0 0.1
2017-May-07 15:55N 49°07' W 123°12'0 0.0
2017-May-07 15:25N 49°07' W 123°12'0 0.0
2017-May-07 04:31N 49°07' W 123°12'0 0.1
2017-May-07 04:25N 49°07' W 123°12'0 0.0
2017-May-07 03:01N 49°07' W 123°12'0 0.1
2017-May-07 02:55N 49°07' W 123°12'0 0.0
2017-May-07 02:25N 49°07' W 123°12'0 0.0
2017-May-07 01:16N 49°07' W 123°12'0 0.0
2017-May-07 00:58N 49°07' W 123°12'0 0.0
2017-May-06 22:37N 49°07' W 123°12'0 0.2
2017-May-06 22:25N 49°07' W 123°12'0 0.0
2017-May-05 02:01N 49°07' W 123°12'0 0.1
2017-May-05 01:58N 49°07' W 123°12'0 0.0
2017-May-04 18:43N 49°07' W 123°12'0 0.0
2017-May-04 18:28N 49°07' W 123°12'0 0.0
2017-May-04 10:28N 49°07' W 123°12'0 0.0
2017-May-04 09:58N 49°07' W 123°12'0 0.0
2017-May-03 16:58N 49°07' W 123°12'1 3.0
2017-May-03 16:31N 49°08' W 123°14'2 4.5
2017-May-03 16:00N 49°07' W 123°17'3 5.0
2017-May-03 15:29N 49°06' W 123°21'3 6.4
2017-May-03 15:01N 49°09' W 123°23'4 8.1
2017-May-03 14:30N 49°13' W 123°21'9 8.9
2017-May-03 13:31N 49°19' W 123°11'4 7.1
2017-May-03 13:01N 49°18' W 123°06'0 0.1
2017-May-03 12:25N 49°18' W 123°06'0 0.0
2017-May-03 11:58N 49°18' W 123°06'0 0.0
2017-May-03 11:28N 49°18' W 123°06'0 0.0
2017-May-03 10:58N 49°18' W 123°06'0 0.1
2017-May-03 10:28N 49°18' W 123°06'0 0.1
2017-May-03 09:58N 49°18' W 123°06'0 0.0
2017-May-03 09:28N 49°18' W 123°06'0 0.0
2017-May-03 08:58N 49°18' W 123°06'0 0.1
2017-May-03 08:28N 49°18' W 123°06'0 0.0
2017-May-03 07:58N 49°18' W 123°06'0 0.0
2017-May-03 07:28N 49°18' W 123°06'0 0.0
2017-May-03 06:58N 49°18' W 123°06'0 0.0
2017-May-03 06:28N 49°18' W 123°06'0 0.0
2017-May-03 05:58N 49°18' W 123°06'0 0.0
2017-May-03 05:28N 49°18' W 123°06'0 0.0
2017-May-03 04:58N 49°18' W 123°06'0 0.0
2017-May-03 04:28N 49°18' W 123°06'0 0.0
2017-May-03 03:58N 49°18' W 123°06'0 0.1
2017-May-03 03:28N 49°18' W 123°06'0 0.0
2017-May-03 02:58N 49°18' W 123°06'0 0.1
2017-May-03 02:28N 49°18' W 123°06'0 0.1
2017-May-03 01:58N 49°18' W 123°06'0 0.0
2017-May-03 01:28N 49°18' W 123°06'0 0.0
2017-May-03 00:58N 49°18' W 123°06'0 0.0
2017-May-03 00:28N 49°18' W 123°06'0 0.0
2017-May-02 23:58N 49°18' W 123°06'0 0.0
2017-May-02 23:28N 49°18' W 123°06'0 0.1
2017-May-02 22:58N 49°18' W 123°06'0 0.0
2017-May-02 22:28N 49°18' W 123°06'0 0.0
2017-May-02 21:58N 49°18' W 123°06'0 0.1
2017-May-02 21:28N 49°18' W 123°06'0 0.1
2017-May-02 20:58N 49°18' W 123°06'0 0.0
2017-May-02 20:28N 49°18' W 123°06'0 0.0
2017-May-02 19:58N 49°18' W 123°06'0 0.0
2017-May-02 19:28N 49°18' W 123°06'0 0.0
2017-May-02 18:58N 49°18' W 123°06'0 0.1
2017-May-02 18:28N 49°18' W 123°06'0 0.0
2017-May-02 17:58N 49°18' W 123°06'0 0.0
2017-May-02 17:28N 49°18' W 123°06'0 0.1
2017-May-02 16:58N 49°18' W 123°06'0 0.0
2017-May-02 16:28N 49°18' W 123°06'0 0.0
2017-May-02 15:58N 49°18' W 123°06'0 0.0
2017-May-02 15:28N 49°18' W 123°06'0 0.0
2017-May-02 14:58N 49°18' W 123°06'0 0.0
2017-May-02 14:28N 49°18' W 123°06'0 0.0
2017-May-02 13:28N 49°18' W 123°06'0 0.0
2017-May-02 12:58N 49°18' W 123°06'0 0.0
2017-May-02 12:28N 49°18' W 123°06'0 0.0
2017-May-02 11:58N 49°18' W 123°06'0 0.0
2017-May-02 11:28N 49°18' W 123°06'0 0.0
2017-May-02 10:58N 49°18' W 123°06'0 0.1
2017-May-02 10:28N 49°18' W 123°06'0 0.1
2017-May-02 09:58N 49°18' W 123°06'0 0.1
2017-May-02 09:28N 49°18' W 123°06'0 0.0
2017-May-02 08:58N 49°18' W 123°06'0 0.1
2017-May-02 08:28N 49°18' W 123°06'0 0.0
2017-May-02 07:58N 49°18' W 123°06'0 0.0
2017-May-02 07:28N 49°18' W 123°06'0 0.0
2017-May-02 06:58N 49°18' W 123°06'0 0.0
2017-May-02 06:28N 49°18' W 123°06'0 0.1
2017-May-02 05:58N 49°18' W 123°06'0 0.1
2017-May-02 05:28N 49°18' W 123°06'0 0.0
2017-May-02 04:58N 49°18' W 123°06'0 0.0
2017-May-02 04:28N 49°18' W 123°06'0 0.0
2017-May-02 03:58N 49°18' W 123°06'0 0.0
2017-May-02 03:28N 49°18' W 123°06'0 0.1
2017-May-02 02:58N 49°18' W 123°06'0 0.0
2017-May-02 02:28N 49°18' W 123°06'0 0.1
2017-May-02 01:58N 49°18' W 123°06'0 0.0
2017-May-02 01:28N 49°18' W 123°06'0 0.1
2017-May-02 00:58N 49°18' W 123°06'0 0.1
2017-May-02 00:28N 49°18' W 123°06'0 0.1
2017-May-02 00:00N 49°18' W 123°06'2 3.0
2017-May-01 23:30N 49°19' W 123°08'4 8.2
2017-May-01 23:00N 49°18' W 123°15'5 9.8
2017-May-01 22:30N 49°14' W 123°19'510.6
2017-May-01 22:00N 49°09' W 123°20'5 9.9
2017-May-01 21:30N 49°04' W 123°20'510.0
2017-May-01 20:59N 49°00' W 123°14'5 9.8
2017-May-01 20:30N 48°57' W 123°09'5 9.5
2017-May-01 19:57N 48°53' W 123°03'4 9.2
2017-May-01 19:28N 48°50' W 122°60'4 8.0
2017-May-01 19:00N 48°46' W 123°02'4 8.9
2017-May-01 18:30N 48°44' W 123°07'5 9.7
2017-May-01 18:00N 48°42' W 123°14'4 8.6
2017-May-01 17:30N 48°38' W 123°14'5 9.5
2017-May-01 17:00N 48°33' W 123°12'510.2
2017-May-01 16:30N 48°28' W 123°10'5 9.7
2017-May-01 16:00N 48°24' W 123°13'510.0
2017-May-01 15:30N 48°22' W 123°20'4 7.2
2017-May-01 15:00N 48°19' W 123°24'3 6.1
2017-May-01 14:30N 48°16' W 123°25'5 5.4
2017-May-01 13:30N 48°13' W 123°32'4 8.2
2017-May-01 13:00N 48°14' W 123°38'4 8.5
2017-May-01 12:30N 48°14' W 123°45'4 8.0
2017-May-01 12:00N 48°14' W 123°51'5 9.0
2017-May-01 11:28N 48°15' W 123°58'510.7
2017-May-01 11:00N 48°17' W 124°05'510.7
2017-May-01 10:30N 48°19' W 124°12'510.2
2017-May-01 10:00N 48°21' W 124°19'510.3
2017-May-01 09:30N 48°23' W 124°26'5 9.9
2017-May-01 09:00N 48°25' W 124°33'5 9.5
2017-May-01 08:30N 48°27' W 124°39'5 9.7
2017-May-01 08:00N 48°29' W 124°46'5 9.8
2017-May-01 07:30N 48°29' W 124°54'5 9.3
2017-May-01 07:00N 48°29' W 125°01'6 9.6
2017-May-01 06:25N 48°28' W 125°09'  
Track history (hours):
 
Tides and Currents Weather Stations Pressure Air Temp Water Temp Dewpoint Dewpoint Depression Visibility Wind Speed Wind Dir Waves Ship Positions

Kaiwo Maru (Japan)

Built in 1989. Trains merchant marine cadets for Japan's National Institute for Sea Training.

Ship's website: http://www.kohkun.go.jp/en/ships/kaiwomaru.html

Last reported at 2017-May-09 12:20 UTC. Time now 2017-May-23 04:56 UTC.
Position N 48°18' W 125°20'.
Warning: this ship's position is 13 days out of date.

Length 110.1 m; beam 13.8 m; draft 6 m.

Type: Sailing vessel. MMSI: 431006000.

Date/timePositionNaut miles runAvg speedWind from/ knotsBaromVisibWave heightAir tempDewpointWater temp
2017-May-09 12:20N 48°18' W 125°20'4 9.4
2017-May-09 11:52N 48°21' W 125°15'4 9.5
2017-May-09 11:28N 48°23' W 125°10'5 9.9
2017-May-09 11:00N 48°27' W 125°06'5 9.8
2017-May-09 10:29N 48°31' W 125°01'5 9.4
2017-May-09 10:00N 48°31' W 124°54'5 9.6
2017-May-09 09:30N 48°30' W 124°47'5 9.5
2017-May-09 09:00N 48°29' W 124°40'5 9.4
2017-May-09 08:31N 48°28' W 124°33'5 9.4
2017-May-09 08:00N 48°26' W 124°27'5 9.2
2017-May-09 07:30N 48°24' W 124°20'5 9.6
2017-May-09 07:00N 48°22' W 124°13'5 9.7
2017-May-09 06:30N 48°21' W 124°07'5 9.7
2017-May-09 06:00N 48°19' W 124°00'5 9.9
2017-May-09 05:30N 48°17' W 123°53'610.3
2017-May-09 04:58N 48°16' W 123°45'510.3
2017-May-09 04:30N 48°15' W 123°38'5 9.8
2017-May-09 03:59N 48°16' W 123°30'511.2
2017-May-09 03:31N 48°21' W 123°26'4 8.4
2017-May-09 03:01N 48°23' W 123°21'510.9
2017-May-09 02:30N 48°25' W 123°13'510.9
2017-May-09 02:00N 48°30' W 123°15'511.0
2017-May-09 01:30N 48°35' W 123°19'510.2
2017-May-09 01:00N 48°40' W 123°21'510.4
2017-May-09 00:30N 48°45' W 123°21'6 9.8
2017-May-08 23:53N 48°51' W 123°21'5 6.7
2017-May-08 23:04N 48°56' W 123°19'110.0
2017-May-08 22:56N 48°57' W 123°19'410.1
2017-May-08 22:30N 49°02' W 123°21'5 9.0
2017-May-08 22:00N 49°06' W 123°19'5 1.4
2017-May-08 18:31N 49°07' W 123°12'0 0.0
2017-May-08 16:43N 49°07' W 123°12'0 0.0
2017-May-08 16:25N 49°07' W 123°12'0 0.0
2017-May-07 16:07N 49°07' W 123°12'0 0.1
2017-May-07 15:55N 49°07' W 123°12'0 0.0
2017-May-07 15:25N 49°07' W 123°12'0 0.0
2017-May-07 04:31N 49°07' W 123°12'0 0.1
2017-May-07 04:25N 49°07' W 123°12'0 0.0
2017-May-07 03:01N 49°07' W 123°12'0 0.1
2017-May-07 02:55N 49°07' W 123°12'0 0.0
2017-May-07 02:25N 49°07' W 123°12'0 0.0
2017-May-07 01:16N 49°07' W 123°12'0 0.0
2017-May-07 00:58N 49°07' W 123°12'0 0.0
2017-May-06 22:37N 49°07' W 123°12'0 0.2
2017-May-06 22:25N 49°07' W 123°12'0 0.0
2017-May-05 02:01N 49°07' W 123°12'0 0.1
2017-May-05 01:58N 49°07' W 123°12'0 0.0
2017-May-04 18:43N 49°07' W 123°12'0 0.0
2017-May-04 18:28N 49°07' W 123°12'0 0.0
2017-May-04 10:28N 49°07' W 123°12'0 0.0
2017-May-04 09:58N 49°07' W 123°12'0 0.0
2017-May-03 16:58N 49°07' W 123°12'1 3.0
2017-May-03 16:31N 49°08' W 123°14'2 4.5
2017-May-03 16:00N 49°07' W 123°17'3 5.0
2017-May-03 15:29N 49°06' W 123°21'3 6.4
2017-May-03 15:01N 49°09' W 123°23'4 8.1
2017-May-03 14:30N 49°13' W 123°21'9 8.9
2017-May-03 13:31N 49°19' W 123°11'4 7.1
2017-May-03 13:01N 49°18' W 123°06'0 0.1
2017-May-03 12:25N 49°18' W 123°06'0 0.0
2017-May-03 11:58N 49°18' W 123°06'0 0.0
2017-May-03 11:28N 49°18' W 123°06'0 0.0
2017-May-03 10:58N 49°18' W 123°06'0 0.1
2017-May-03 10:28N 49°18' W 123°06'0 0.1
2017-May-03 09:58N 49°18' W 123°06'0 0.0
2017-May-03 09:28N 49°18' W 123°06'0 0.0
2017-May-03 08:58N 49°18' W 123°06'0 0.1
2017-May-03 08:28N 49°18' W 123°06'0 0.0
2017-May-03 07:58N 49°18' W 123°06'0 0.0
2017-May-03 07:28N 49°18' W 123°06'0 0.0
2017-May-03 06:58N 49°18' W 123°06'0 0.0
2017-May-03 06:28N 49°18' W 123°06'0 0.0
2017-May-03 05:58N 49°18' W 123°06'0 0.0
2017-May-03 05:28N 49°18' W 123°06'0 0.0
2017-May-03 04:58N 49°18' W 123°06'0 0.0
2017-May-03 04:28N 49°18' W 123°06'0 0.0
2017-May-03 03:58N 49°18' W 123°06'0 0.1
2017-May-03 03:28N 49°18' W 123°06'0 0.0
2017-May-03 02:58N 49°18' W 123°06'0 0.1
2017-May-03 02:28N 49°18' W 123°06'0 0.1
2017-May-03 01:58N 49°18' W 123°06'0 0.0
2017-May-03 01:28N 49°18' W 123°06'0 0.0
2017-May-03 00:58N 49°18' W 123°06'0 0.0
2017-May-03 00:28N 49°18' W 123°06'0 0.0
2017-May-02 23:58N 49°18' W 123°06'0 0.0
2017-May-02 23:28N 49°18' W 123°06'0 0.1
2017-May-02 22:58N 49°18' W 123°06'0 0.0
2017-May-02 22:28N 49°18' W 123°06'0 0.0
2017-May-02 21:58N 49°18' W 123°06'0 0.1
2017-May-02 21:28N 49°18' W 123°06'0 0.1
2017-May-02 20:58N 49°18' W 123°06'0 0.0
2017-May-02 20:28N 49°18' W 123°06'0 0.0
2017-May-02 19:58N 49°18' W 123°06'0 0.0
2017-May-02 19:28N 49°18' W 123°06'0 0.0
2017-May-02 18:58N 49°18' W 123°06'0 0.1
2017-May-02 18:28N 49°18' W 123°06'0 0.0
2017-May-02 17:58N 49°18' W 123°06'0 0.0
2017-May-02 17:28N 49°18' W 123°06'0 0.1
2017-May-02 16:58N 49°18' W 123°06'0 0.0
2017-May-02 16:28N 49°18' W 123°06'0 0.0
2017-May-02 15:58N 49°18' W 123°06'0 0.0
2017-May-02 15:28N 49°18' W 123°06'0 0.0
2017-May-02 14:58N 49°18' W 123°06'0 0.0
2017-May-02 14:28N 49°18' W 123°06'0 0.0
2017-May-02 13:28N 49°18' W 123°06'0 0.0
2017-May-02 12:58N 49°18' W 123°06'0 0.0
2017-May-02 12:28N 49°18' W 123°06'0 0.0
2017-May-02 11:58N 49°18' W 123°06'0 0.0
2017-May-02 11:28N 49°18' W 123°06'0 0.0
2017-May-02 10:58N 49°18' W 123°06'0 0.1
2017-May-02 10:28N 49°18' W 123°06'0 0.1
2017-May-02 09:58N 49°18' W 123°06'0 0.1
2017-May-02 09:28N 49°18' W 123°06'0 0.0
2017-May-02 08:58N 49°18' W 123°06'0 0.1
2017-May-02 08:28N 49°18' W 123°06'0 0.0
2017-May-02 07:58N 49°18' W 123°06'0 0.0
2017-May-02 07:28N 49°18' W 123°06'0 0.0
2017-May-02 06:58N 49°18' W 123°06'0 0.0
2017-May-02 06:28N 49°18' W 123°06'0 0.1
2017-May-02 05:58N 49°18' W 123°06'0 0.1
2017-May-02 05:28N 49°18' W 123°06'0 0.0
2017-May-02 04:58N 49°18' W 123°06'0 0.0
2017-May-02 04:28N 49°18' W 123°06'0 0.0
2017-May-02 03:58N 49°18' W 123°06'0 0.0
2017-May-02 03:28N 49°18' W 123°06'0 0.1
2017-May-02 02:58N 49°18' W 123°06'0 0.0
2017-May-02 02:28N 49°18' W 123°06'0 0.1
2017-May-02 01:58N 49°18' W 123°06'0 0.0
2017-May-02 01:28N 49°18' W 123°06'0 0.1
2017-May-02 00:58N 49°18' W 123°06'0 0.1
2017-May-02 00:28N 49°18' W 123°06'0 0.1
2017-May-02 00:00N 49°18' W 123°06'2 3.0
2017-May-01 23:30N 49°19' W 123°08'4 8.2
2017-May-01 23:00N 49°18' W 123°15'5 9.8
2017-May-01 22:30N 49°14' W 123°19'510.6
2017-May-01 22:00N 49°09' W 123°20'5 9.9
2017-May-01 21:30N 49°04' W 123°20'510.0
2017-May-01 20:59N 49°00' W 123°14'5 9.8
2017-May-01 20:30N 48°57' W 123°09'5 9.5
2017-May-01 19:57N 48°53' W 123°03'4 9.2
2017-May-01 19:28N 48°50' W 122°60'4 8.0
2017-May-01 19:00N 48°46' W 123°02'4 8.9
2017-May-01 18:30N 48°44' W 123°07'5 9.7
2017-May-01 18:00N 48°42' W 123°14'4 8.6
2017-May-01 17:30N 48°38' W 123°14'5 9.5
2017-May-01 17:00N 48°33' W 123°12'510.2
2017-May-01 16:30N 48°28' W 123°10'5 9.7
2017-May-01 16:00N 48°24' W 123°13'510.0
2017-May-01 15:30N 48°22' W 123°20'4 7.2
2017-May-01 15:00N 48°19' W 123°24'3 6.1
2017-May-01 14:30N 48°16' W 123°25'5 5.4
2017-May-01 13:30N 48°13' W 123°32'4 8.2
2017-May-01 13:00N 48°14' W 123°38'4 8.5
2017-May-01 12:30N 48°14' W 123°45'4 8.0
2017-May-01 12:00N 48°14' W 123°51'5 9.0
2017-May-01 11:28N 48°15' W 123°58'510.7
2017-May-01 11:00N 48°17' W 124°05'510.7
2017-May-01 10:30N 48°19' W 124°12'510.2
2017-May-01 10:00N 48°21' W 124°19'510.3
2017-May-01 09:30N 48°23' W 124°26'5 9.9
2017-May-01 09:00N 48°25' W 124°33'5 9.5
2017-May-01 08:30N 48°27' W 124°39'5 9.7
2017-May-01 08:00N 48°29' W 124°46'5 9.8
2017-May-01 07:30N 48°29' W 124°54'5 9.3
2017-May-01 07:00N 48°29' W 125°01'6 9.6
2017-May-01 06:25N 48°28' W 125°09'  

Dump ship's entire track history